Terminal Aerodrome Forecast
Issued by NWS Charleston, WV

Current Version | Previous Version | Text Only | Print | Product List | Glossary Off
Versions: 1 2 3 4 5 6 7 8 9 10 11 12 13 14 15 16 17 18 19 20 21 22 23 24 25

000
FTUS41 KRLX 170400 AAB
TAFBKW
TAF AMD
KBKW 170429Z 1704/1724 00000KT 6SM BR BKN045
      TEMPO 1704/1706 4SM BR BKN002
     FM170600 00000KT 4SM BR BKN012 OVC035
      TEMPO 1706/1708 2SM BR OVC002
     FM171500 VRB03KT P6SM SCT020=

USA.gov is the U.S. government's official web portal to all federal, state and local government web resources and services.